createdAt,value
2023-03-02T00:01:12.288Z,-1.60
2023-03-02T00:03:41.954Z,-1.60
2023-03-02T00:06:10.454Z,-1.60
2023-03-02T00:08:39.540Z,-1.70
2023-03-02T00:11:07.446Z,-1.70
2023-03-02T00:13:37.956Z,-1.80
2023-03-02T00:16:06.520Z,-1.80
2023-03-02T00:18:35.683Z,-1.80
2023-03-02T00:21:03.486Z,-1.80
2023-03-02T00:23:31.252Z,-1.80
2023-03-02T00:25:59.048Z,-1.80
2023-03-02T00:28:27.300Z,-1.80
2023-03-02T00:30:55.237Z,-1.90
2023-03-02T00:33:23.133Z,-1.90
2023-03-02T00:35:52.432Z,-2.00
2023-03-02T00:38:20.276Z,-2.10
2023-03-02T00:40:48.975Z,-2.10
2023-03-02T00:43:17.508Z,-2.00
2023-03-02T00:45:45.364Z,-2.10
2023-03-02T00:48:13.262Z,-2.10
2023-03-02T00:50:41.887Z,-2.20
2023-03-02T00:53:11.415Z,-2.20
2023-03-02T00:55:39.500Z,-2.30
2023-03-02T00:58:07.302Z,-2.30
2023-03-02T01:00:35.629Z,-2.30
2023-03-02T01:03:06.906Z,-2.40
2023-03-02T01:05:37.909Z,-2.40
2023-03-02T01:08:06.204Z,-2.40
2023-03-02T01:10:35.998Z,-2.30
2023-03-02T01:13:03.875Z,-2.30
2023-03-02T01:15:32.905Z,-2.30
2023-03-02T01:18:01.384Z,-2.20
2023-03-02T01:20:29.549Z,-2.20
2023-03-02T01:22:57.848Z,-2.20
2023-03-02T01:25:25.686Z,-2.20
2023-03-02T01:27:55.156Z,-2.20
2023-03-02T01:30:23.053Z,-2.10
2023-03-02T01:32:50.869Z,-2.20
2023-03-02T01:35:18.985Z,-2.10
2023-03-02T01:37:46.853Z,-2.10
2023-03-02T01:40:15.645Z,-2.10
2023-03-02T01:42:52.023Z,-2.10
2023-03-02T01:45:47.795Z,-2.10
2023-03-02T01:48:27.066Z,-2.10
2023-03-02T01:50:56.113Z,-2.10
2023-03-02T01:53:26.979Z,-2.10
2023-03-02T01:55:55.215Z,-2.10
2023-03-02T01:58:23.442Z,-2.10
2023-03-02T02:00:55.711Z,-2.10
2023-03-02T02:03:27.246Z,-2.10
2023-03-02T02:06:04.926Z,-2.10
2023-03-02T02:08:33.692Z,-2.10
2023-03-02T02:11:02.067Z,-2.10
2023-03-02T02:13:29.909Z,-2.10
2023-03-02T02:15:59.032Z,-2.10
2023-03-02T02:18:27.961Z,-2.20
2023-03-02T02:20:56.401Z,-2.20
2023-03-02T02:23:30.276Z,-2.30
2023-03-02T02:26:09.438Z,-2.30
2023-03-02T02:28:41.687Z,-2.30
2023-03-02T02:31:14.995Z,-2.30
2023-03-02T02:33:47.552Z,-2.30
2023-03-02T02:36:19.716Z,-2.30
2023-03-02T02:38:52.677Z,-2.30
2023-03-02T02:41:27.038Z,-2.30
2023-03-02T02:43:55.384Z,-2.30
2023-03-02T02:46:23.552Z,-2.30
2023-03-02T02:48:51.422Z,-2.30
2023-03-02T02:51:23.757Z,-2.30
2023-03-02T02:53:58.585Z,-2.20
2023-03-02T02:56:33.759Z,-2.20
2023-03-02T02:59:05.708Z,-2.30
2023-03-02T03:01:35.094Z,-2.30
2023-03-02T03:04:05.469Z,-2.30
2023-03-02T03:06:42.162Z,-2.30
2023-03-02T03:09:12.437Z,-2.40
2023-03-02T03:11:49.545Z,-2.40
2023-03-02T03:14:20.591Z,-2.40
2023-03-02T03:16:52.124Z,-2.40
2023-03-02T03:19:23.048Z,-2.50
2023-03-02T03:21:54.657Z,-2.60
2023-03-02T03:24:24.510Z,-2.60
2023-03-02T03:26:55.538Z,-2.70
2023-03-02T03:29:26.197Z,-2.70
2023-03-02T03:31:58.972Z,-2.80
2023-03-02T03:34:27.634Z,-2.80
2023-03-02T03:37:01.584Z,-2.80
2023-03-02T03:39:32.861Z,-2.90
2023-03-02T03:42:02.189Z,-2.90
2023-03-02T03:44:30.322Z,-2.90
2023-03-02T03:46:58.276Z,-2.90
2023-03-02T03:49:26.684Z,-2.90
2023-03-02T03:51:55.564Z,-2.90
2023-03-02T03:54:23.914Z,-2.90
2023-03-02T03:56:52.134Z,-2.80
2023-03-02T03:59:22.938Z,-2.90
2023-03-02T04:01:59.939Z,-2.80
2023-03-02T04:04:34.622Z,-2.80
2023-03-02T04:07:07.525Z,-2.80
2023-03-02T04:09:37.969Z,-2.70
2023-03-02T04:12:09.432Z,-2.80
2023-03-02T04:14:40.321Z,-2.80
2023-03-02T04:17:08.409Z,-2.70
2023-03-02T04:19:40.938Z,-2.70
2023-03-02T04:22:09.947Z,-2.80
2023-03-02T04:24:37.736Z,-2.80
2023-03-02T04:27:05.945Z,-2.80
2023-03-02T04:29:36.052Z,-2.80
2023-03-02T04:32:07.669Z,-2.80
2023-03-02T04:34:38.414Z,-2.80
2023-03-02T04:37:06.335Z,-2.90
2023-03-02T04:39:34.209Z,-2.80
2023-03-02T04:42:02.016Z,-2.80
2023-03-02T04:44:29.818Z,-2.90
2023-03-02T04:46:57.750Z,-2.90
2023-03-02T04:49:26.923Z,-2.80
2023-03-02T04:51:54.765Z,-2.90
2023-03-02T04:54:25.911Z,-3.00
2023-03-02T04:56:54.773Z,-3.00
2023-03-02T04:59:25.906Z,-3.10
2023-03-02T05:01:54.363Z,-3.10
2023-03-02T05:04:22.376Z,-3.10
2023-03-02T05:06:52.511Z,-3.10
2023-03-02T05:09:21.175Z,-3.10
2023-03-02T05:11:48.976Z,-3.20
2023-03-02T05:14:16.791Z,-3.20
2023-03-02T05:16:44.581Z,-3.20
2023-03-02T05:19:13.415Z,-3.20
2023-03-02T05:21:41.732Z,-3.20
2023-03-02T05:24:11.802Z,-3.20
2023-03-02T05:26:40.415Z,-3.20
2023-03-02T05:29:08.196Z,-3.20
2023-03-02T05:31:38.523Z,-3.20
2023-03-02T05:34:08.901Z,-3.20
2023-03-02T05:36:37.097Z,-3.20
2023-03-02T05:39:06.191Z,-3.20
2023-03-02T05:41:35.752Z,-3.20
2023-03-02T05:44:03.636Z,-3.20
2023-03-02T05:46:31.829Z,-3.20
2023-03-02T05:48:59.723Z,-3.20
2023-03-02T05:51:33.290Z,-3.20
2023-03-02T05:54:01.187Z,-3.20
2023-03-02T05:56:28.990Z,-3.20
2023-03-02T05:58:58.120Z,-3.10
2023-03-02T06:01:25.913Z,-3.10
2023-03-02T06:03:53.725Z,-3.20
2023-03-02T06:06:21.550Z,-3.10
2023-03-02T06:08:49.318Z,-3.20
2023-03-02T06:11:17.139Z,-3.10
2023-03-02T06:13:44.984Z,-3.10
2023-03-02T06:16:14.151Z,-3.10
2023-03-02T06:18:42.023Z,-3.10
2023-03-02T06:21:10.245Z,-3.10
2023-03-02T06:23:38.208Z,-3.10
2023-03-02T06:26:09.437Z,-3.00
2023-03-02T06:28:49.637Z,-3.00
2023-03-02T06:31:20.838Z,-2.90
2023-03-02T06:33:48.793Z,-2.90
2023-03-02T06:36:17.087Z,-2.90
2023-03-02T06:38:45.080Z,-2.80
2023-03-02T06:41:12.924Z,-2.70
2023-03-02T06:43:40.733Z,-2.70
2023-03-02T06:46:08.757Z,-2.60
2023-03-02T06:48:38.100Z,-2.60
2023-03-02T06:51:07.642Z,-2.50
2023-03-02T06:53:35.496Z,-2.50
2023-03-02T06:56:03.237Z,-2.40
2023-03-02T06:58:31.028Z,-2.30
2023-03-02T07:00:58.845Z,-2.30
2023-03-02T07:03:26.714Z,-2.20
2023-03-02T07:05:55.908Z,-2.10
2023-03-02T07:08:23.989Z,-2.10
2023-03-02T07:10:52.288Z,-2.00
2023-03-02T07:13:20.146Z,-1.90
2023-03-02T07:15:47.974Z,-1.80
2023-03-02T07:18:15.730Z,-1.70
2023-03-02T07:20:45.647Z,-1.60
2023-03-02T07:23:14.853Z,-1.60
2023-03-02T07:25:42.659Z,-1.50
2023-03-02T07:28:10.567Z,-1.50
2023-03-02T07:30:38.690Z,-1.30
2023-03-02T07:33:06.545Z,-1.20
2023-03-02T07:35:34.390Z,-1.10
2023-03-02T07:38:02.244Z,-1.00
2023-03-02T07:40:31.385Z,-0.80
2023-03-02T07:42:59.305Z,-0.70
2023-03-02T07:45:27.248Z,-0.50
2023-03-02T07:47:55.033Z,-0.40
2023-03-02T07:50:22.856Z,-0.30
2023-03-02T07:52:50.698Z,-0.20
2023-03-02T07:55:18.688Z,0.00
2023-03-02T07:57:47.952Z,0.10
2023-03-02T08:00:17.677Z,0.20
2023-03-02T08:02:45.769Z,0.30
2023-03-02T08:05:15.658Z,0.40
2023-03-02T08:07:44.057Z,0.50
2023-03-02T08:10:13.203Z,0.60
2023-03-02T08:12:42.825Z,0.60
2023-03-02T08:15:13.210Z,0.60
2023-03-02T08:17:41.198Z,0.70
2023-03-02T08:20:10.009Z,0.80
2023-03-02T08:22:37.911Z,0.90
2023-03-02T08:25:07.485Z,0.90
2023-03-02T08:27:35.359Z,1.00
2023-03-02T08:30:03.353Z,1.20
2023-03-02T08:32:33.633Z,1.30
2023-03-02T08:35:01.688Z,1.40
2023-03-02T08:37:29.471Z,1.50
2023-03-02T08:39:58.705Z,1.60
2023-03-02T08:42:26.785Z,1.70
2023-03-02T08:44:54.832Z,1.70
2023-03-02T08:47:22.686Z,1.80
2023-03-02T08:49:51.813Z,1.90
2023-03-02T09:00:36.096Z,2.00
2023-03-02T09:19:44.469Z,2.60
2023-03-02T09:22:23.763Z,2.70
2023-03-02T09:24:51.687Z,2.80
2023-03-02T09:27:19.551Z,2.90
2023-03-02T09:29:47.370Z,3.00
2023-03-02T09:32:16.585Z,3.10
2023-03-02T09:34:44.496Z,3.30
2023-03-02T09:37:12.298Z,3.30
2023-03-02T09:39:40.147Z,3.50
2023-03-02T09:42:43.646Z,3.50
2023-03-02T09:45:30.695Z,3.60
2023-03-02T09:48:12.054Z,3.70
2023-03-02T09:50:47.329Z,3.80
2023-03-02T09:53:41.802Z,3.90
2023-03-02T09:56:16.541Z,4.10
2023-03-02T09:58:49.625Z,4.10
2023-03-02T10:01:30.285Z,4.20
2023-03-02T10:04:09.177Z,4.30
2023-03-02T10:06:37.036Z,4.40
2023-03-02T10:09:05.012Z,4.60
2023-03-02T10:11:40.401Z,4.60
2023-03-02T10:14:13.647Z,4.70
2023-03-02T10:16:49.318Z,4.80
2023-03-02T10:19:25.971Z,4.90
2023-03-02T10:22:01.510Z,5.00
2023-03-02T10:24:36.624Z,5.10
2023-03-02T10:27:16.974Z,5.20
2023-03-02T10:29:50.921Z,5.30
2023-03-02T10:32:22.913Z,5.50
2023-03-02T10:34:53.421Z,5.60
2023-03-02T10:37:25.363Z,5.50
2023-03-02T10:39:53.852Z,5.50
2023-03-02T10:42:26.938Z,5.50
2023-03-02T10:44:57.981Z,5.60
2023-03-02T10:47:27.647Z,5.60
2023-03-02T10:49:57.848Z,5.70
2023-03-02T10:52:27.684Z,5.70
2023-03-02T10:55:06.236Z,5.70
2023-03-02T10:57:39.170Z,5.80
2023-03-02T11:00:18.402Z,5.90
2023-03-02T11:02:51.266Z,5.90
2023-03-02T11:05:32.047Z,6.00
2023-03-02T11:08:01.987Z,6.00
2023-03-02T11:10:32.280Z,6.10
2023-03-02T11:13:01.438Z,6.10
2023-03-02T11:15:36.549Z,6.20
2023-03-02T11:18:08.938Z,6.30
2023-03-02T11:20:43.620Z,6.40
2023-03-02T11:23:19.557Z,6.40
2023-03-02T11:25:52.723Z,6.40
2023-03-02T11:28:32.882Z,6.50
2023-03-02T11:31:03.546Z,6.70
2023-03-02T11:33:38.276Z,6.70
2023-03-02T11:36:13.159Z,6.80
2023-03-02T11:38:48.000Z,6.80
2023-03-02T11:41:28.519Z,7.00
2023-03-02T11:44:01.272Z,7.10
2023-03-02T11:46:33.334Z,7.20
2023-03-02T11:49:05.298Z,7.30
2023-03-02T11:51:44.473Z,7.30
2023-03-02T11:54:28.871Z,7.30
2023-03-02T11:56:57.149Z,7.30
2023-03-02T11:59:27.641Z,7.40
2023-03-02T12:01:59.582Z,7.40
2023-03-02T12:04:32.188Z,7.50
2023-03-02T12:07:02.764Z,7.50
2023-03-02T12:09:35.045Z,7.60
2023-03-02T12:12:24.648Z,7.60
2023-03-02T12:14:52.878Z,7.70
2023-03-02T12:17:31.654Z,7.70
2023-03-02T12:20:25.163Z,7.80
2023-03-02T12:22:54.783Z,7.90
2023-03-02T12:25:30.328Z,7.90
2023-03-02T12:27:58.136Z,7.90
2023-03-02T12:30:28.404Z,7.90
2023-03-02T12:33:06.616Z,7.90
2023-03-02T12:35:35.933Z,7.90
2023-03-02T12:38:07.675Z,7.90
2023-03-02T12:40:53.525Z,7.90
2023-03-02T12:43:28.532Z,8.00
2023-03-02T12:46:33.447Z,8.10
2023-03-02T12:49:10.819Z,8.20
2023-03-02T12:51:49.397Z,8.20
2023-03-02T12:54:20.264Z,8.30
2023-03-02T12:56:48.481Z,8.30
2023-03-02T12:59:25.172Z,8.30
2023-03-02T13:01:53.315Z,8.30
2023-03-02T13:04:26.465Z,8.30
2023-03-02T13:06:55.329Z,8.20
2023-03-02T13:09:24.654Z,8.20
2023-03-02T13:11:54.940Z,8.20
2023-03-02T13:14:27.308Z,8.30
2023-03-02T13:16:57.867Z,8.40
2023-03-02T13:19:26.853Z,8.30
2023-03-02T13:21:54.906Z,8.30
2023-03-02T13:24:46.331Z,8.40
2023-03-02T13:27:19.175Z,8.40
2023-03-02T13:29:47.707Z,8.40
2023-03-02T13:32:18.338Z,8.50
2023-03-02T13:34:52.011Z,8.50
2023-03-02T13:37:23.958Z,8.50
2023-03-02T13:40:05.731Z,8.50
2023-03-02T13:42:37.654Z,8.50
2023-03-02T13:45:24.607Z,8.50
2023-03-02T13:47:52.832Z,8.50
2023-03-02T13:50:23.271Z,8.50
2023-03-02T13:52:52.196Z,8.50
2023-03-02T13:55:23.215Z,8.50
2023-03-02T13:57:53.656Z,8.60
2023-03-02T14:00:24.182Z,8.60
2023-03-02T14:02:51.943Z,8.60
2023-03-02T14:05:21.893Z,8.60
2023-03-02T14:07:49.842Z,8.70
2023-03-02T14:10:19.976Z,8.70
2023-03-02T14:12:56.439Z,8.70
2023-03-02T14:15:24.325Z,8.70
2023-03-02T14:17:52.140Z,8.70
2023-03-02T14:20:21.139Z,8.70
2023-03-02T14:22:50.559Z,8.70
2023-03-02T14:25:19.493Z,8.70
2023-03-02T14:27:47.981Z,8.70
2023-03-02T14:30:19.899Z,8.70
2023-03-02T14:32:48.430Z,8.70
2023-03-02T14:35:17.460Z,8.70
2023-03-02T14:37:48.278Z,8.70
2023-03-02T14:40:18.790Z,8.70
2023-03-02T14:42:46.653Z,8.70
2023-03-02T14:45:14.510Z,8.70
2023-03-02T14:47:43.687Z,8.60
2023-03-02T14:50:13.008Z,8.60
2023-03-02T14:52:44.201Z,8.60
2023-03-02T14:55:18.333Z,8.60
2023-03-02T14:57:46.339Z,8.50
2023-03-02T15:00:16.310Z,8.50
2023-03-02T15:02:45.669Z,8.50
2023-03-02T15:05:13.738Z,8.50
2023-03-02T15:07:41.670Z,8.50
2023-03-02T15:10:13.297Z,8.50
2023-03-02T15:12:41.320Z,8.50
2023-03-02T15:15:10.706Z,8.50
2023-03-02T15:17:39.011Z,8.40
2023-03-02T15:20:13.693Z,8.30
2023-03-02T15:22:41.470Z,8.30
2023-03-02T15:25:10.035Z,8.30
2023-03-02T15:27:38.006Z,8.30
2023-03-02T15:30:06.650Z,8.30
2023-03-02T15:32:34.531Z,8.30
2023-03-02T15:35:03.986Z,8.30
2023-03-02T15:37:33.126Z,8.20
2023-03-02T15:40:01.021Z,8.20
2023-03-02T15:42:29.096Z,8.20
2023-03-02T15:44:57.080Z,8.10
2023-03-02T15:47:25.042Z,8.10
2023-03-02T15:49:52.795Z,8.10
2023-03-02T15:52:21.517Z,8.00
2023-03-02T15:54:50.917Z,7.90
2023-03-02T15:57:18.862Z,7.90
2023-03-02T15:59:46.687Z,7.90
2023-03-02T16:02:15.153Z,7.90
2023-03-02T16:04:43.017Z,7.90
2023-03-02T16:07:10.842Z,7.80
2023-03-02T16:09:38.838Z,7.70
2023-03-02T16:12:08.151Z,7.70
2023-03-02T16:14:35.987Z,7.70
2023-03-02T16:17:03.906Z,7.60
2023-03-02T16:19:32.269Z,7.60
2023-03-02T16:22:00.289Z,7.50
2023-03-02T16:24:28.190Z,7.50
2023-03-02T16:26:55.985Z,7.40
2023-03-02T16:29:25.157Z,7.30
2023-03-02T16:31:53.104Z,7.30
2023-03-02T16:34:21.173Z,7.10
2023-03-02T16:36:49.002Z,7.00
2023-03-02T16:39:16.834Z,7.00
2023-03-02T16:41:46.147Z,6.90
2023-03-02T16:44:16.087Z,6.80
2023-03-02T16:46:45.356Z,6.70
2023-03-02T16:49:14.930Z,6.60
2023-03-02T16:51:43.470Z,6.60
2023-03-02T16:54:12.010Z,6.50
2023-03-02T16:56:41.740Z,6.40
2023-03-02T16:59:09.575Z,6.30
2023-03-02T17:01:37.451Z,6.20
2023-03-02T17:04:08.121Z,6.10
2023-03-02T17:06:35.947Z,6.00
2023-03-02T17:09:04.695Z,6.00
2023-03-02T17:11:32.972Z,5.90
2023-03-02T17:14:01.336Z,5.80
2023-03-02T17:16:29.557Z,5.80
2023-03-02T17:18:57.870Z,5.70
2023-03-02T17:21:27.666Z,5.60
2023-03-02T17:23:59.013Z,5.50
2023-03-02T17:26:29.535Z,5.40
2023-03-02T17:29:00.949Z,5.30
2023-03-02T17:31:29.166Z,5.20
2023-03-02T17:33:57.550Z,5.10
2023-03-02T17:36:27.089Z,5.10
2023-03-02T17:38:55.252Z,5.00
2023-03-02T17:41:23.509Z,4.90
2023-03-02T17:43:51.962Z,4.80
2023-03-02T17:46:32.634Z,4.70
2023-03-02T17:49:01.567Z,4.70
2023-03-02T17:51:31.161Z,4.60
2023-03-02T17:53:59.125Z,4.50
2023-03-02T17:56:28.321Z,4.40
2023-03-02T17:58:57.650Z,4.40
2023-03-02T18:01:26.074Z,4.30
2023-03-02T18:03:54.119Z,4.20
2023-03-02T18:06:22.119Z,4.20
2023-03-02T18:08:52.587Z,4.10
2023-03-02T18:11:24.380Z,4.10
2023-03-02T18:13:54.763Z,4.00
2023-03-02T18:16:22.987Z,4.00
2023-03-02T18:18:53.494Z,4.00
2023-03-02T18:21:22.434Z,3.90
2023-03-02T18:23:51.894Z,3.90
2023-03-02T18:26:19.714Z,3.80
2023-03-02T18:28:47.600Z,3.80
2023-03-02T18:31:16.685Z,3.70
2023-03-02T18:33:47.345Z,3.70
2023-03-02T18:36:15.440Z,3.70
2023-03-02T18:38:43.674Z,3.70
2023-03-02T18:41:14.692Z,3.70
2023-03-02T18:43:43.459Z,3.70
2023-03-02T18:46:18.917Z,3.70
2023-03-02T18:48:46.792Z,3.70
2023-03-02T18:51:14.910Z,3.80
2023-03-02T18:53:43.243Z,3.80
2023-03-02T18:56:12.883Z,3.80
2023-03-02T18:58:41.292Z,3.90
2023-03-02T19:01:10.124Z,3.90
2023-03-02T19:03:39.177Z,4.00
2023-03-02T19:06:08.756Z,3.90
2023-03-02T19:08:37.259Z,4.00
2023-03-02T19:11:08.190Z,4.00
2023-03-02T19:13:37.412Z,3.90
2023-03-02T19:16:05.988Z,3.90
2023-03-02T19:18:34.345Z,3.90
2023-03-02T19:21:04.269Z,3.80
2023-03-02T19:23:32.558Z,3.70
2023-03-02T19:26:01.518Z,3.70
2023-03-02T19:28:29.890Z,3.60
2023-03-02T19:31:02.687Z,3.50
2023-03-02T19:33:30.535Z,3.40
2023-03-02T19:35:58.500Z,3.40
2023-03-02T19:38:29.077Z,3.40
2023-03-02T19:40:58.131Z,3.40
2023-03-02T19:43:26.601Z,3.20
2023-03-02T19:45:54.503Z,3.20
2023-03-02T19:48:23.624Z,3.10
2023-03-02T19:50:52.838Z,3.10
2023-03-02T19:53:20.638Z,3.10
2023-03-02T19:55:48.879Z,3.10
2023-03-02T19:58:17.510Z,3.00
2023-03-02T20:00:46.435Z,3.00
2023-03-02T20:03:14.267Z,3.00
2023-03-02T20:05:43.408Z,3.00
2023-03-02T20:08:11.698Z,2.90
2023-03-02T20:10:42.385Z,2.90
2023-03-02T20:13:11.370Z,3.00
2023-03-02T20:15:41.853Z,3.00
2023-03-02T20:18:12.938Z,3.00
2023-03-02T20:20:41.189Z,2.90
2023-03-02T20:23:10.402Z,2.90
2023-03-02T20:25:38.597Z,2.90
2023-03-02T20:28:07.165Z,2.90
2023-03-02T20:30:38.090Z,3.00
2023-03-02T20:33:07.269Z,3.00
2023-03-02T20:35:37.748Z,3.00
2023-03-02T20:38:07.974Z,3.00
2023-03-02T20:40:37.784Z,3.00
2023-03-02T20:43:06.244Z,3.10
2023-03-02T20:45:46.504Z,3.10
2023-03-02T20:48:14.901Z,3.00
2023-03-02T20:50:43.410Z,3.00
2023-03-02T20:53:11.843Z,2.90
2023-03-02T20:55:40.958Z,2.90
2023-03-02T20:58:09.685Z,2.90
2023-03-02T21:00:38.992Z,2.90
2023-03-02T21:03:08.366Z,3.00
2023-03-02T21:05:38.160Z,3.00
2023-03-02T21:08:18.380Z,3.00
2023-03-02T21:10:47.884Z,3.00
2023-03-02T21:13:16.189Z,2.90
2023-03-02T21:15:44.128Z,2.90
2023-03-02T21:18:14.083Z,2.90
2023-03-02T21:20:41.873Z,2.90
2023-03-02T21:23:11.082Z,2.90
2023-03-02T21:25:41.865Z,2.90
2023-03-02T21:28:11.859Z,2.90
2023-03-02T21:30:39.667Z,3.00
2023-03-02T21:33:07.733Z,3.00
2023-03-02T21:35:37.041Z,2.90
2023-03-02T21:38:05.762Z,2.90
2023-03-02T21:40:35.955Z,3.00
2023-03-02T21:43:07.547Z,3.00
2023-03-02T21:45:37.170Z,3.00
2023-03-02T21:48:06.044Z,3.00
2023-03-02T21:50:36.713Z,3.00
2023-03-02T21:53:05.228Z,3.00
2023-03-02T21:55:33.711Z,3.00
2023-03-02T21:58:01.690Z,2.90
2023-03-02T22:00:32.453Z,2.90
2023-03-02T22:03:02.553Z,2.80
2023-03-02T22:05:30.469Z,2.90
2023-03-02T22:07:58.533Z,2.90
2023-03-02T22:10:30.721Z,2.80
2023-03-02T22:13:06.888Z,2.80
2023-03-02T22:15:34.670Z,2.80
2023-03-02T22:18:07.351Z,2.90
2023-03-02T22:20:44.404Z,2.90
2023-03-02T22:23:14.366Z,2.80
2023-03-02T22:25:44.335Z,2.80
2023-03-02T22:28:17.556Z,2.80
2023-03-02T22:30:45.796Z,2.90
2023-03-02T22:33:20.425Z,2.90
2023-03-02T22:35:49.327Z,2.90
2023-03-02T22:38:23.823Z,2.90
2023-03-02T22:40:52.195Z,2.90
2023-03-02T22:43:25.515Z,2.90
2023-03-02T22:45:54.248Z,2.90
2023-03-02T22:48:28.761Z,2.90
2023-03-02T22:50:57.267Z,2.90
2023-03-02T22:53:28.952Z,2.90
2023-03-02T22:55:59.281Z,2.90
2023-03-02T22:58:45.316Z,2.90
2023-03-02T23:01:23.965Z,2.80
2023-03-02T23:03:55.333Z,2.80
2023-03-02T23:06:34.629Z,2.80
2023-03-02T23:09:05.038Z,2.80
2023-03-02T23:11:37.475Z,2.80
2023-03-02T23:14:14.889Z,2.80
2023-03-02T23:16:42.674Z,2.80
2023-03-02T23:19:11.791Z,2.80
2023-03-02T23:21:41.931Z,2.80
2023-03-02T23:24:10.141Z,2.80
2023-03-02T23:26:38.122Z,2.80
2023-03-02T23:29:06.638Z,2.70
2023-03-02T23:31:34.674Z,2.70
2023-03-02T23:34:02.586Z,2.70
2023-03-02T23:36:32.060Z,2.70
2023-03-02T23:39:00.076Z,2.70
2023-03-02T23:41:27.865Z,2.70
2023-03-02T23:43:55.882Z,2.70
2023-03-02T23:46:23.908Z,2.70
2023-03-02T23:48:51.845Z,2.70
2023-03-02T23:51:19.709Z,2.70
2023-03-02T23:53:48.802Z,2.80
2023-03-02T23:56:16.666Z,2.80
2023-03-02T23:58:44.527Z,2.80
